Time;durP1;ratioP1;P1;durP2;ratioP2;P2;SDS_P1;SDS_P2;PMS_P1;PMS_P2;Temp;Humidity;BMP_temperature;BMP_pressure;BME280_temperature;BME280_humidity;BME280_pressure;Samples;Min_cycle;Max_cycle;Signal;HPM_P1;HPM_P2
2023/01/24 00:01:41;;;;;;;16.63;15.10;;;;;;;;;;4951762;29;20238;-85
2023/01/24 00:04:06;;;;;;;18.30;16.40;;;;;;;;;;4964049;28;20367;-85
2023/01/24 00:06:39;;;;;;;17.60;15.90;;;;;;;;;;4967895;28;20229;-86
2023/01/24 00:09:07;;;;;;;17.10;15.47;;;;;;;;;;4967313;28;20245;-86
2023/01/24 00:11:32;;;;;;;16.80;15.10;;;;;;;;;;4973200;28;20231;-86
2023/01/24 00:13:58;;;;;;;16.20;14.67;;;;;;;;;;4965498;28;22239;-85
2023/01/24 00:16:26;;;;;;;16.83;15.23;;;;;;;;;;4954881;28;20236;-86
2023/01/24 00:18:54;;;;;;;16.73;14.93;;;;;;;;;;4968120;28;20708;-85
2023/01/24 00:21:21;;;;;;;16.63;14.80;;;;;;;;;;4966862;28;20226;-86
2023/01/24 00:23:49;;;;;;;17.87;15.90;;;;;;;;;;4988500;28;20234;-85
2023/01/24 00:26:17;;;;;;;16.97;15.27;;;;;;;;;;4965855;28;20231;-86
2023/01/24 00:28:46;;;;;;;17.00;15.37;;;;;;;;;;4972512;28;20282;-85
2023/01/24 00:31:12;;;;;;;17.27;15.57;;;;;;;;;;4967207;28;20224;-84
2023/01/24 00:33:38;;;;;;;17.47;15.67;;;;;;;;;;4955326;28;20230;-86
2023/01/24 00:36:08;;;;;;;16.83;15.30;;;;;;;;;;4968061;28;20218;-84
2023/01/24 00:38:36;;;;;;;17.33;15.60;;;;;;;;;;4947219;28;20767;-85
2023/01/24 00:41:01;;;;;;;17.47;15.80;;;;;;;;;;4967469;28;20496;-84
2023/01/24 00:43:30;;;;;;;17.50;15.73;;;;;;;;;;4958206;28;20268;-85
2023/01/24 00:45:58;;;;;;;16.37;14.80;;;;;;;;;;4979491;28;20237;-84
2023/01/24 00:48:26;;;;;;;16.60;15.00;;;;;;;;;;4958414;28;20228;-85
2023/01/24 00:50:52;;;;;;;16.53;14.90;;;;;;;;;;4970891;28;20222;-86
2023/01/24 00:53:20;;;;;;;16.97;15.37;;;;;;;;;;4957235;28;20593;-84
2023/01/24 00:55:48;;;;;;;17.30;15.60;;;;;;;;;;4962080;28;20232;-86
2023/01/24 00:58:17;;;;;;;17.13;15.53;;;;;;;;;;4975316;28;20232;-86
2023/01/24 01:00:45;;;;;;;16.70;15.10;;;;;;;;;;4974178;28;20218;-85
2023/01/24 01:03:15;;;;;;;16.70;15.10;;;;;;;;;;4984889;28;20221;-86
2023/01/24 01:05:41;;;;;;;16.10;14.60;;;;;;;;;;4977745;28;20256;-86
2023/01/24 01:08:07;;;;;;;15.73;14.23;;;;;;;;;;4971664;28;20886;-86
2023/01/24 01:10:33;;;;;;;16.20;14.50;;;;;;;;;;4962656;28;20256;-84
2023/01/24 01:12:58;;;;;;;16.80;15.17;;;;;;;;;;4961817;28;20285;-85
2023/01/24 01:15:24;;;;;;;19.27;15.83;;;;;;;;;;4988972;28;20210;-86
2023/01/24 01:17:52;;;;;;;17.03;15.43;;;;;;;;;;4939951;28;20282;-85
2023/01/24 01:20:21;;;;;;;17.30;15.60;;;;;;;;;;4961564;28;20226;-85
2023/01/24 01:22:49;;;;;;;15.93;14.40;;;;;;;;;;4975059;28;20226;-85
2023/01/24 01:25:17;;;;;;;16.23;14.60;;;;;;;;;;4946988;28;20222;-85
2023/01/24 01:27:43;;;;;;;16.60;14.97;;;;;;;;;;4985950;28;20789;-85
2023/01/24 01:30:11;;;;;;;15.83;14.23;;;;;;;;;;4960598;28;20236;-85
2023/01/24 01:32:39;;;;;;;17.30;13.90;;;;;;;;;;4971016;28;20312;-86
2023/01/24 01:35:07;;;;;;;16.00;14.40;;;;;;;;;;4978199;28;20222;-85
2023/01/24 01:37:35;;;;;;;15.27;13.60;;;;;;;;;;4957362;28;20585;-84
2023/01/24 01:40:04;;;;;;;15.03;13.53;;;;;;;;;;4956120;28;20239;-85
2023/01/24 01:42:49;;;;;;;14.93;13.43;;;;;;;;;;4962528;28;20231;-85
2023/01/24 01:45:43;;;;;;;15.90;14.23;;;;;;;;;;4970480;28;20231;-84
2023/01/24 01:48:13;;;;;;;15.63;14.03;;;;;;;;;;4970917;28;20337;-84
2023/01/24 01:50:40;;;;;;;15.73;14.33;;;;;;;;;;4969331;28;20245;-86
2023/01/24 01:53:11;;;;;;;15.83;14.27;;;;;;;;;;4965106;28;20230;-84
2023/01/24 01:55:41;;;;;;;15.50;14.03;;;;;;;;;;4982387;28;20226;-86
2023/01/24 01:58:07;;;;;;;15.17;13.67;;;;;;;;;;4962948;28;20222;-85
2023/01/24 02:00:35;;;;;;;14.57;13.07;;;;;;;;;;4967982;28;20210;-86
2023/01/24 02:05:58;;;;;;;13.97;12.47;;;;;;;;;;4981374;28;20250;-86
2023/01/24 02:08:26;;;;;;;14.63;13.23;;;;;;;;;;4987811;28;20255;-86
2023/01/24 02:13:39;;;;;;;14.60;13.30;;;;;;;;;;4999234;28;20237;-85
2023/01/24 02:16:09;;;;;;;13.80;12.50;;;;;;;;;;4982129;28;20206;-82
2023/01/24 02:18:36;;;;;;;16.43;13.40;;;;;;;;;;4987932;28;20240;-86
2023/01/24 02:21:07;;;;;;;14.40;12.97;;;;;;;;;;4969491;28;20206;-83
2023/01/24 02:24:02;;;;;;;14.30;12.97;;;;;;;;;;4974865;28;20237;-87
2023/01/24 02:26:28;;;;;;;13.53;12.00;;;;;;;;;;4991971;28;20233;-84
2023/01/24 02:29:14;;;;;;;14.07;12.60;;;;;;;;;;4961673;28;20218;-84
2023/01/24 02:31:56;;;;;;;12.73;11.63;;;;;;;;;;4977189;28;20241;-85
2023/01/24 02:34:21;;;;;;;14.17;12.83;;;;;;;;;;4970833;28;20221;-84
2023/01/24 02:36:54;;;;;;;13.47;12.17;;;;;;;;;;4963513;28;20770;-84
2023/01/24 02:39:45;;;;;;;17.97;13.10;;;;;;;;;;4955447;28;20225;-85
2023/01/24 02:42:15;;;;;;;13.70;12.30;;;;;;;;;;4961201;28;20214;-84
2023/01/24 02:44:53;;;;;;;13.10;11.97;;;;;;;;;;4967819;28;20222;-86
2023/01/24 02:47:18;;;;;;;13.73;12.40;;;;;;;;;;4951618;28;20222;-85
2023/01/24 02:49:46;;;;;;;13.37;12.07;;;;;;;;;;4967624;28;20290;-83
2023/01/24 02:54:56;;;;;;;13.60;12.40;;;;;;;;;;4981568;28;20245;-85
2023/01/24 03:00:12;;;;;;;14.17;12.80;;;;;;;;;;4969624;28;20683;-85
2023/01/24 03:02:43;;;;;;;13.63;12.23;;;;;;;;;;4959412;28;20868;-83
2023/01/24 03:05:10;;;;;;;13.03;11.83;;;;;;;;;;4981612;28;20289;-83
2023/01/24 03:07:43;;;;;;;13.17;12.03;;;;;;;;;;4943756;28;20210;-85
2023/01/24 03:10:12;;;;;;;13.30;12.00;;;;;;;;;;4987708;28;20220;-85
2023/01/24 03:34:49;;;;;;;12.33;11.13;;;;;;;;;;4964617;28;20230;-85
2023/01/24 03:40:12;;;;;;;10.80;9.80;;;;;;;;;;4985713;28;20226;-85
2023/01/24 03:42:47;;;;;;;10.67;9.47;;;;;;;;;;4983674;28;20225;-84
2023/01/24 03:45:42;;;;;;;10.47;9.50;;;;;;;;;;4961855;28;20222;-84
2023/01/24 03:48:36;;;;;;;10.70;9.57;;;;;;;;;;4969572;28;20274;-84
2023/01/24 03:53:47;;;;;;;10.27;9.33;;;;;;;;;;4969944;28;20581;-85
2023/01/24 03:56:13;;;;;;;9.60;8.80;;;;;;;;;;4948366;28;20214;-84
2023/01/24 03:58:53;;;;;;;9.90;9.00;;;;;;;;;;4978654;28;20234;-85
2023/01/24 04:01:20;;;;;;;10.03;9.13;;;;;;;;;;4948624;28;20232;-85
2023/01/24 04:04:07;;;;;;;9.53;8.57;;;;;;;;;;4969551;28;20249;-84
2023/01/24 04:06:35;;;;;;;9.47;8.63;;;;;;;;;;4988526;28;20264;-84
2023/01/24 04:09:07;;;;;;;9.67;8.80;;;;;;;;;;4967306;28;20218;-84
2023/01/24 04:11:35;;;;;;;9.80;8.93;;;;;;;;;;4958123;28;20222;-85
2023/01/24 04:14:13;;;;;;;10.60;8.80;;;;;;;;;;4967763;28;20252;-86
2023/01/24 04:16:52;;;;;;;9.77;8.87;;;;;;;;;;4982020;28;21061;-86
2023/01/24 04:19:29;;;;;;;9.53;8.63;;;;;;;;;;4969247;28;20222;-86
2023/01/24 04:21:57;;;;;;;10.23;9.23;;;;;;;;;;4937063;28;20241;-85
2023/01/24 04:24:23;;;;;;;9.60;8.70;;;;;;;;;;4984825;28;20287;-85
2023/01/24 04:26:48;;;;;;;9.87;8.90;;;;;;;;;;4952193;28;20554;-86
2023/01/24 04:29:20;;;;;;;10.20;9.30;;;;;;;;;;4961824;28;20223;-85
2023/01/24 04:31:51;;;;;;;9.70;8.77;;;;;;;;;;4973241;28;20229;-85
2023/01/24 04:34:29;;;;;;;9.00;8.20;;;;;;;;;;4972000;28;20240;-85
2023/01/24 04:37:01;;;;;;;9.70;8.70;;;;;;;;;;4964517;28;20226;-84
2023/01/24 04:39:30;;;;;;;8.60;7.70;;;;;;;;;;4971357;28;20229;-86
2023/01/24 04:42:05;;;;;;;8.80;8.07;;;;;;;;;;4967617;28;20221;-85
2023/01/24 04:44:34;;;;;;;8.23;7.53;;;;;;;;;;4962583;28;20225;-85
2023/01/24 04:47:02;;;;;;;7.20;6.70;;;;;;;;;;4934960;28;20660;-82
2023/01/24 04:49:30;;;;;;;8.93;8.03;;;;;;;;;;4985584;28;20238;-83
2023/01/24 04:51:56;;;;;;;8.70;7.90;;;;;;;;;;4969505;28;20226;-82
2023/01/24 04:54:30;;;;;;;8.60;7.80;;;;;;;;;;4957085;28;20232;-82
2023/01/24 04:56:56;;;;;;;7.47;6.77;;;;;;;;;;4952018;28;20237;-82
2023/01/24 04:59:24;;;;;;;8.17;7.43;;;;;;;;;;4986369;28;20237;-83
2023/01/24 05:01:50;;;;;;;7.70;7.00;;;;;;;;;;4940231;28;20310;-82
2023/01/24 05:04:30;;;;;;;8.40;7.60;;;;;;;;;;4980746;28;20249;-84
2023/01/24 05:06:59;;;;;;;9.03;7.07;;;;;;;;;;4973713;28;20622;-82
2023/01/24 05:09:29;;;;;;;6.30;5.80;;;;;;;;;;4974697;28;20218;-82
2023/01/24 05:12:00;;;;;;;5.03;4.53;;;;;;;;;;4994641;28;20281;-83
2023/01/24 05:14:28;;;;;;;4.90;4.50;;;;;;;;;;4976868;28;20236;-84
2023/01/24 05:16:54;;;;;;;5.37;4.87;;;;;;;;;;4982930;28;20221;-83
2023/01/24 05:19:23;;;;;;;5.03;4.63;;;;;;;;;;4955316;28;20242;-85
2023/01/24 05:21:48;;;;;;;5.40;5.00;;;;;;;;;;4978498;28;20281;-83
2023/01/24 05:24:18;;;;;;;6.77;6.07;;;;;;;;;;4949199;28;20210;-83
2023/01/24 05:26:44;;;;;;;8.93;7.00;;;;;;;;;;4961273;28;20316;-82
2023/01/24 05:29:11;;;;;;;8.00;7.30;;;;;;;;;;4977740;28;20220;-84
2023/01/24 05:31:38;;;;;;;7.83;7.20;;;;;;;;;;4964482;28;20222;-82
2023/01/24 05:34:05;;;;;;;8.87;8.13;;;;;;;;;;4968574;28;20220;-83
2023/01/24 05:36:31;;;;;;;8.40;7.57;;;;;;;;;;4975553;28;20254;-84
2023/01/24 05:38:59;;;;;;;7.50;6.80;;;;;;;;;;4992260;28;20305;-83
2023/01/24 05:41:25;;;;;;;6.73;6.20;;;;;;;;;;4958459;28;20226;-86
2023/01/24 05:43:54;;;;;;;7.40;6.80;;;;;;;;;;4963424;28;20230;-81
2023/01/24 05:46:24;;;;;;;7.80;7.10;;;;;;;;;;4967654;28;20599;-82
2023/01/24 05:49:01;;;;;;;7.67;7.07;;;;;;;;;;4973399;28;20274;-83
2023/01/24 05:51:26;;;;;;;7.80;7.13;;;;;;;;;;4983711;28;20222;-84
2023/01/24 05:53:53;;;;;;;7.57;6.87;;;;;;;;;;4953389;28;20222;-84
2023/01/24 05:56:38;;;;;;;6.43;5.93;;;;;;;;;;4966565;28;20687;-87
2023/01/24 05:59:04;;;;;;;7.23;6.63;;;;;;;;;;4969122;28;20222;-83
2023/01/24 06:01:31;;;;;;;7.93;7.27;;;;;;;;;;4964686;28;20297;-83
2023/01/24 06:04:01;;;;;;;8.37;7.33;;;;;;;;;;4974919;28;20265;-85
2023/01/24 06:06:29;;;;;;;7.20;6.50;;;;;;;;;;4962701;28;20244;-83
2023/01/24 06:08:56;;;;;;;7.37;6.73;;;;;;;;;;4964702;28;20230;-82
2023/01/24 06:11:27;;;;;;;7.07;6.37;;;;;;;;;;4974330;28;20225;-85
2023/01/24 06:14:00;;;;;;;7.07;6.47;;;;;;;;;;4964177;28;20228;-85
2023/01/24 06:16:29;;;;;;;8.97;8.17;;;;;;;;;;4964853;28;20353;-83
2023/01/24 06:18:57;;;;;;;8.17;7.57;;;;;;;;;;4973508;28;20217;-84
2023/01/24 06:21:46;;;;;;;9.30;8.50;;;;;;;;;;4957432;28;20218;-85
2023/01/24 06:24:24;;;;;;;9.00;8.10;;;;;;;;;;4971939;28;20218;-82
2023/01/24 06:27:02;;;;;;;9.77;8.87;;;;;;;;;;4984004;28;20231;-85
2023/01/24 06:29:28;;;;;;;9.87;8.87;;;;;;;;;;4964834;28;20321;-80
2023/01/24 06:31:59;;;;;;;10.07;9.17;;;;;;;;;;4980364;28;20290;-83
2023/01/24 06:34:37;;;;;;;9.83;8.87;;;;;;;;;;4958883;28;20229;-82
2023/01/24 06:37:23;;;;;;;10.20;9.30;;;;;;;;;;4991215;28;20218;-81
2023/01/24 06:39:50;;;;;;;10.67;9.70;;;;;;;;;;4967458;28;20246;-82
2023/01/24 06:42:20;;;;;;;9.67;8.77;;;;;;;;;;4958696;28;20864;-85
2023/01/24 06:44:48;;;;;;;9.97;9.03;;;;;;;;;;4959441;28;20219;-85
2023/01/24 06:47:13;;;;;;;9.03;8.23;;;;;;;;;;4983640;28;20276;-82
2023/01/24 06:49:42;;;;;;;9.10;8.30;;;;;;;;;;4978772;28;20226;-84
2023/01/24 06:52:08;;;;;;;8.43;7.73;;;;;;;;;;4957715;28;20650;-84
2023/01/24 06:54:33;;;;;;;8.43;7.73;;;;;;;;;;4948822;28;20238;-84
2023/01/24 06:57:02;;;;;;;8.57;7.80;;;;;;;;;;4967284;28;20309;-84
2023/01/24 06:59:30;;;;;;;9.07;8.27;;;;;;;;;;4962470;28;20253;-81
2023/01/24 07:01:55;;;;;;;9.23;8.43;;;;;;;;;;4961657;28;20229;-81
2023/01/24 07:04:21;;;;;;;8.47;7.77;;;;;;;;;;4987548;28;20230;-81
2023/01/24 07:06:52;;;;;;;8.97;8.13;;;;;;;;;;4969857;28;20583;-83
2023/01/24 07:09:20;;;;;;;8.40;7.60;;;;;;;;;;4980777;28;20222;-84
2023/01/24 07:11:53;;;;;;;9.23;8.40;;;;;;;;;;4959561;28;20218;-84
2023/01/24 07:14:19;;;;;;;8.80;7.93;;;;;;;;;;4963908;28;20631;-82
2023/01/24 07:16:44;;;;;;;9.03;8.23;;;;;;;;;;4970591;28;20221;-80
2023/01/24 07:19:16;;;;;;;8.80;8.00;;;;;;;;;;4961064;28;20253;-81
2023/01/24 07:21:42;;;;;;;9.47;8.23;;;;;;;;;;4969958;28;20241;-80
2023/01/24 07:24:16;;;;;;;8.70;8.00;;;;;;;;;;4960436;28;20218;-80
2023/01/24 07:26:41;;;;;;;9.07;8.17;;;;;;;;;;4962581;28;20247;-82
2023/01/24 07:29:07;;;;;;;9.67;8.67;;;;;;;;;;4973393;28;20225;-83
2023/01/24 07:31:35;;;;;;;9.00;8.20;;;;;;;;;;4971089;28;20214;-80
2023/01/24 07:34:00;;;;;;;8.67;7.97;;;;;;;;;;4956079;28;20218;-82
2023/01/24 07:36:26;;;;;;;10.23;9.23;;;;;;;;;;4976262;28;20277;-81
2023/01/24 07:38:54;;;;;;;9.63;8.73;;;;;;;;;;4981910;28;20253;-83
2023/01/24 07:41:22;;;;;;;9.50;8.70;;;;;;;;;;4956550;28;20214;-84
2023/01/24 07:43:54;;;;;;;9.23;8.43;;;;;;;;;;4960629;28;20699;-83
2023/01/24 07:46:22;;;;;;;9.87;9.03;;;;;;;;;;4952465;28;20695;-83
2023/01/24 07:48:50;;;;;;;9.13;8.30;;;;;;;;;;4962819;28;20221;-78
2023/01/24 07:51:18;;;;;;;10.13;9.23;;;;;;;;;;4968412;28;20291;-84
2023/01/24 07:53:45;;;;;;;9.27;8.47;;;;;;;;;;4970293;28;20234;-84
2023/01/24 07:56:11;;;;;;;9.63;8.70;;;;;;;;;;4982259;28;20213;-84
2023/01/24 07:58:39;;;;;;;9.57;8.63;;;;;;;;;;4994481;28;20237;-84
2023/01/24 08:01:04;;;;;;;9.80;8.90;;;;;;;;;;4952128;28;20229;-83
2023/01/24 08:03:30;;;;;;;10.03;9.10;;;;;;;;;;4956551;28;20237;-84
2023/01/24 08:05:57;;;;;;;9.97;9.07;;;;;;;;;;4962369;28;20236;-85
2023/01/24 08:08:23;;;;;;;10.17;8.83;;;;;;;;;;4964251;28;20219;-82
2023/01/24 08:10:51;;;;;;;10.03;9.03;;;;;;;;;;4957804;28;21259;-84
2023/01/24 08:13:27;;;;;;;9.77;8.87;;;;;;;;;;4939976;28;20241;-82
2023/01/24 08:16:04;;;;;;;9.97;9.13;;;;;;;;;;4934834;29;20218;-82
2023/01/24 08:18:30;;;;;;;8.73;8.03;;;;;;;;;;4949693;28;20252;-83
2023/01/24 08:20:58;;;;;;;9.67;8.77;;;;;;;;;;4940586;28;20238;-84
2023/01/24 08:23:26;;;;;;;9.07;8.20;;;;;;;;;;4966845;23;20256;-79
2023/01/24 08:25:57;;;;;;;10.87;9.00;;;;;;;;;;4987987;28;20229;-77
2023/01/24 08:28:22;;;;;;;8.77;8.03;;;;;;;;;;4976729;28;20263;-79
2023/01/24 08:30:50;;;;;;;8.77;7.93;;;;;;;;;;4993574;28;20674;-78
2023/01/24 08:33:18;;;;;;;9.40;8.60;;;;;;;;;;4960338;28;20217;-79
2023/01/24 08:35:46;;;;;;;9.70;8.90;;;;;;;;;;4993685;28;20324;-77
2023/01/24 08:38:12;;;;;;;9.57;8.77;;;;;;;;;;5011501;28;20260;-79
2023/01/24 08:40:41;;;;;;;9.83;8.87;;;;;;;;;;5007710;28;20225;-77
2023/01/24 08:43:07;;;;;;;9.00;8.20;;;;;;;;;;4989165;28;20245;-79
2023/01/24 08:45:32;;;;;;;8.50;7.80;;;;;;;;;;4979663;28;20690;-80
2023/01/24 08:48:03;;;;;;;7.87;7.17;;;;;;;;;;4976914;28;20232;-80
2023/01/24 08:50:28;;;;;;;8.70;7.90;;;;;;;;;;4992959;28;20233;-78
2023/01/24 08:52:55;;;;;;;8.80;8.00;;;;;;;;;;4997545;28;20237;-78
2023/01/24 08:55:21;;;;;;;8.87;7.53;;;;;;;;;;4978384;28;20275;-79
2023/01/24 08:57:46;;;;;;;7.37;6.67;;;;;;;;;;4975950;28;20600;-80
2023/01/24 09:00:13;;;;;;;7.50;6.87;;;;;;;;;;4993542;28;20236;-80
2023/01/24 09:02:41;;;;;;;8.30;7.00;;;;;;;;;;4975511;28;20224;-79
2023/01/24 09:05:09;;;;;;;7.50;6.90;;;;;;;;;;4991282;28;20268;-79
2023/01/24 09:07:41;;;;;;;6.77;6.17;;;;;;;;;;4978220;28;20717;-79
2023/01/24 09:10:09;;;;;;;7.97;7.17;;;;;;;;;;4992818;28;20225;-81
2023/01/24 09:12:37;;;;;;;7.50;6.90;;;;;;;;;;5003633;28;20308;-78
2023/01/24 09:15:04;;;;;;;10.87;7.77;;;;;;;;;;5010940;28;20231;-80
2023/01/24 09:17:32;;;;;;;7.50;6.90;;;;;;;;;;5006201;28;20233;-79
2023/01/24 09:20:01;;;;;;;10.23;7.20;;;;;;;;;;4994976;28;20477;-79
2023/01/24 09:22:26;;;;;;;7.80;7.10;;;;;;;;;;4993834;28;20221;-79
2023/01/24 09:24:52;;;;;;;8.70;7.97;;;;;;;;;;4978290;28;20240;-79
2023/01/24 09:27:18;;;;;;;7.47;6.87;;;;;;;;;;4976126;28;20218;-79
2023/01/24 09:29:43;;;;;;;8.30;7.53;;;;;;;;;;4993328;28;20209;-78
2023/01/24 09:32:09;;;;;;;8.20;7.40;;;;;;;;;;4993603;28;20229;-79
2023/01/24 09:34:35;;;;;;;8.20;7.50;;;;;;;;;;4976170;28;20215;-80
2023/01/24 09:37:00;;;;;;;7.63;7.00;;;;;;;;;;4960125;28;20748;-79
2023/01/24 09:39:26;;;;;;;7.50;6.90;;;;;;;;;;4975189;28;20217;-79
2023/01/24 09:42:27;;;;;;;7.80;7.10;;;;;;;;;;4991836;28;20210;-81
2023/01/24 09:44:55;;;;;;;7.77;7.17;;;;;;;;;;4993506;28;20229;-80
2023/01/24 09:47:39;;;;;;;7.47;6.77;;;;;;;;;;4976386;28;20353;-80
2023/01/24 09:50:09;;;;;;;6.53;6.03;;;;;;;;;;4974460;28;20234;-81
2023/01/24 09:52:47;;;;;;;6.57;5.97;;;;;;;;;;4939593;28;20254;-78
2023/01/24 09:55:41;;;;;;;7.10;6.40;;;;;;;;;;4962105;28;20213;-79
2023/01/24 09:58:30;;;;;;;7.30;6.60;;;;;;;;;;4991732;28;20217;-80
2023/01/24 10:01:05;;;;;;;7.50;6.83;;;;;;;;;;4993603;28;20631;-78
2023/01/24 10:03:33;;;;;;;7.70;6.40;;;;;;;;;;4963116;28;20233;-79
2023/01/24 10:06:01;;;;;;;7.10;6.40;;;;;;;;;;4965703;28;20226;-79
2023/01/24 10:08:57;;;;;;;7.37;6.77;;;;;;;;;;4996028;28;20302;-80
2023/01/24 10:11:41;;;;;;;7.60;7.00;;;;;;;;;;5005680;28;20256;-79
2023/01/24 10:14:35;;;;;;;6.13;5.60;;;;;;;;;;4995420;28;20228;-78
2023/01/24 10:17:26;;;;;;;6.43;5.83;;;;;;;;;;4996536;28;20224;-79
2023/01/24 10:20:39;;;;;;;6.27;5.77;;;;;;;;;;4978565;28;20229;-79
2023/01/24 10:23:17;;;;;;;5.77;5.17;;;;;;;;;;4956010;28;20217;-78
2023/01/24 10:25:49;;;;;;;6.13;5.63;;;;;;;;;;4980543;28;20244;-78
2023/01/24 10:28:26;;;;;;;6.33;5.80;;;;;;;;;;4993602;28;20583;-79
2023/01/24 10:30:53;;;;;;;6.90;6.20;;;;;;;;;;4992020;28;20644;-77
2023/01/24 10:33:19;;;;;;;7.83;7.17;;;;;;;;;;5008585;28;20402;-78
2023/01/24 10:36:15;;;;;;;7.03;6.30;;;;;;;;;;4991600;28;20249;-78
2023/01/24 10:38:43;;;;;;;6.47;5.90;;;;;;;;;;4959131;28;20308;-79
2023/01/24 10:41:20;;;;;;;8.27;5.83;;;;;;;;;;4991406;28;20217;-78
2023/01/24 10:44:07;;;;;;;6.57;6.07;;;;;;;;;;4979339;28;20229;-80
2023/01/24 10:46:44;;;;;;;7.07;6.50;;;;;;;;;;4956675;28;20312;-79
2023/01/24 10:49:20;;;;;;;7.33;6.73;;;;;;;;;;4952534;28;20225;-79
2023/01/24 10:52:13;;;;;;;7.67;6.57;;;;;;;;;;4973908;28;20263;-79
2023/01/24 10:54:46;;;;;;;7.87;7.10;;;;;;;;;;4992835;28;20238;-79
2023/01/24 10:57:40;;;;;;;6.17;5.67;;;;;;;;;;4977525;28;20610;-79
2023/01/24 11:00:25;;;;;;;6.63;5.93;;;;;;;;;;4983765;28;20312;-79
2023/01/24 11:02:52;;;;;;;6.47;5.97;;;;;;;;;;4998932;28;20225;-77
2023/01/24 11:05:18;;;;;;;6.97;6.40;;;;;;;;;;4990118;28;21017;-77
2023/01/24 11:08:00;;;;;;;7.47;6.77;;;;;;;;;;4990177;28;20233;-79
2023/01/24 11:10:34;;;;;;;7.17;6.47;;;;;;;;;;4946061;28;20267;-79
2023/01/24 11:13:20;;;;;;;7.90;7.10;;;;;;;;;;4986493;28;20229;-79
2023/01/24 11:15:51;;;;;;;7.77;7.07;;;;;;;;;;5005136;28;20236;-77
2023/01/24 11:18:20;;;;;;;7.50;6.80;;;;;;;;;;4983625;28;20301;-76
2023/01/24 11:20:46;;;;;;;8.77;6.27;;;;;;;;;;4991145;28;20783;-79
2023/01/24 11:23:11;;;;;;;6.27;5.67;;;;;;;;;;4961567;28;20705;-78
2023/01/24 11:26:02;;;;;;;5.57;5.13;;;;;;;;;;4991139;28;20332;-77
2023/01/24 11:28:30;;;;;;;6.40;5.73;;;;;;;;;;4990597;28;20283;-78
2023/01/24 11:31:03;;;;;;;6.10;5.50;;;;;;;;;;4973586;28;20225;-77
2023/01/24 11:33:36;;;;;;;7.00;6.40;;;;;;;;;;4991158;28;20226;-78
2023/01/24 11:36:04;;;;;;;6.50;5.90;;;;;;;;;;4991388;28;20228;-78
2023/01/24 11:38:40;;;;;;;7.43;6.83;;;;;;;;;;4961674;28;20229;-78
2023/01/24 11:41:08;;;;;;;7.17;6.47;;;;;;;;;;4992094;28;20221;-77
2023/01/24 11:43:45;;;;;;;7.33;6.70;;;;;;;;;;4992813;28;20272;-77
2023/01/24 11:46:44;;;;;;;8.00;7.10;;;;;;;;;;4991319;28;20233;-78
2023/01/24 11:49:10;;;;;;;7.80;6.90;;;;;;;;;;4963299;28;20230;-77
2023/01/24 11:51:44;;;;;;;7.83;7.20;;;;;;;;;;4989938;28;20233;-77
2023/01/24 11:54:14;;;;;;;7.37;6.67;;;;;;;;;;4987198;28;20238;-78
2023/01/24 11:56:42;;;;;;;9.37;8.57;;;;;;;;;;4972016;28;20672;-78
2023/01/24 11:59:41;;;;;;;9.80;9.00;;;;;;;;;;4972841;28;20233;-78
2023/01/24 12:02:36;;;;;;;9.23;8.33;;;;;;;;;;4989174;28;20591;-78
2023/01/24 12:05:04;;;;;;;8.93;8.13;;;;;;;;;;4993342;28;20252;-77
2023/01/24 12:07:47;;;;;;;9.63;8.73;;;;;;;;;;4976458;28;20260;-77
2023/01/24 12:10:16;;;;;;;9.70;8.90;;;;;;;;;;4992826;28;20213;-78
2023/01/24 12:12:44;;;;;;;9.40;8.50;;;;;;;;;;4996520;28;20724;-79
2023/01/24 12:15:21;;;;;;;9.37;8.47;;;;;;;;;;4974444;28;20443;-78
2023/01/24 12:18:08;;;;;;;8.47;7.70;;;;;;;;;;4990970;28;20225;-79
2023/01/24 12:20:43;;;;;;;8.87;8.03;;;;;;;;;;4990959;28;20225;-79
2023/01/24 12:23:27;;;;;;;8.43;7.70;;;;;;;;;;4953062;28;20665;-80
2023/01/24 12:25:53;;;;;;;8.17;7.47;;;;;;;;;;4978853;28;20232;-78
2023/01/24 12:28:32;;;;;;;8.97;8.10;;;;;;;;;;4975953;28;20221;-78
2023/01/24 12:30:58;;;;;;;9.00;8.20;;;;;;;;;;5013502;28;20244;-77
2023/01/24 12:33:33;;;;;;;9.13;8.33;;;;;;;;;;5005442;28;20220;-77
2023/01/24 12:36:05;;;;;;;9.23;8.50;;;;;;;;;;4987881;28;20247;-79
2023/01/24 12:38:43;;;;;;;9.40;8.57;;;;;;;;;;5003181;28;20221;-78
2023/01/24 12:41:23;;;;;;;9.90;8.63;;;;;;;;;;4996056;28;20225;-78
2023/01/24 12:43:54;;;;;;;10.40;9.40;;;;;;;;;;4956009;28;20234;-78
2023/01/24 12:46:49;;;;;;;9.23;8.37;;;;;;;;;;4984731;28;20237;-80
2023/01/24 12:49:36;;;;;;;10.27;9.37;;;;;;;;;;4987396;28;20221;-78
2023/01/24 12:52:11;;;;;;;10.17;9.03;;;;;;;;;;4989451;28;20217;-78
2023/01/24 12:54:42;;;;;;;9.03;8.33;;;;;;;;;;4956764;28;20221;-77
2023/01/24 12:57:42;;;;;;;9.60;8.77;;;;;;;;;;4967307;28;20218;-78
2023/01/24 13:00:20;;;;;;;9.43;8.53;;;;;;;;;;4989122;28;20228;-78
2023/01/24 13:03:22;;;;;;;11.00;8.50;;;;;;;;;;4971405;28;20604;-78
2023/01/24 13:06:14;;;;;;;10.17;9.27;;;;;;;;;;4992520;28;20236;-78
2023/01/24 13:09:01;;;;;;;9.73;8.87;;;;;;;;;;4976193;28;20239;-78
2023/01/24 13:11:30;;;;;;;9.57;8.67;;;;;;;;;;5010819;28;20232;-78
2023/01/24 13:14:04;;;;;;;9.57;8.60;;;;;;;;;;4972517;28;20210;-77
2023/01/24 13:16:47;;;;;;;10.47;9.50;;;;;;;;;;4992222;28;20225;-79
2023/01/24 13:19:35;;;;;;;9.63;8.67;;;;;;;;;;4990296;28;20224;-78
2023/01/24 13:22:17;;;;;;;10.10;9.10;;;;;;;;;;5009974;28;20209;-78
2023/01/24 13:25:20;;;;;;;10.13;9.10;;;;;;;;;;5007992;28;20628;-77
2023/01/24 13:28:04;;;;;;;8.90;8.10;;;;;;;;;;4993602;28;20292;-78
2023/01/24 13:30:54;;;;;;;9.50;8.70;;;;;;;;;;4987996;28;20308;-78
2023/01/24 13:33:35;;;;;;;8.90;8.10;;;;;;;;;;4981806;28;20222;-77
2023/01/24 13:36:03;;;;;;;9.17;8.20;;;;;;;;;;4985674;28;20236;-79
2023/01/24 13:38:31;;;;;;;9.33;8.53;;;;;;;;;;4963306;28;20230;-77
2023/01/24 13:41:06;;;;;;;9.87;8.87;;;;;;;;;;4983413;28;20221;-77
2023/01/24 13:43:58;;;;;;;10.40;9.40;;;;;;;;;;4999019;28;20260;-78
2023/01/24 13:46:44;;;;;;;9.83;8.97;;;;;;;;;;4997149;28;20261;-79
2023/01/24 13:49:37;;;;;;;10.07;9.13;;;;;;;;;;4990509;28;20226;-78
2023/01/24 13:52:36;;;;;;;9.97;8.87;;;;;;;;;;4963254;28;20276;-79
2023/01/24 13:55:04;;;;;;;8.70;8.00;;;;;;;;;;4992982;28;20309;-78
2023/01/24 13:57:40;;;;;;;9.23;8.33;;;;;;;;;;4972107;28;20701;-77
2023/01/24 14:00:23;;;;;;;9.10;8.30;;;;;;;;;;4962202;28;20303;-77
2023/01/24 14:02:53;;;;;;;9.53;8.63;;;;;;;;;;4975187;28;20295;-77
2023/01/24 14:05:28;;;;;;;9.67;8.73;;;;;;;;;;5002208;28;20253;-77
2023/01/24 14:07:56;;;;;;;9.20;8.30;;;;;;;;;;4995083;28;20226;-77
2023/01/24 14:10:38;;;;;;;9.43;8.63;;;;;;;;;;4991427;28;20283;-77
2023/01/24 14:14:01;;;;;;;9.80;8.80;;;;;;;;;;4977412;28;20260;-78
2023/01/24 14:16:27;;;;;;;9.70;8.90;;;;;;;;;;4953669;29;20703;-79
2023/01/24 14:30:13;;;;;;;8.37;7.67;;;;;;;;;;4993194;28;20263;-77
2023/01/24 14:36:33;;;;;;;12.43;11.23;;;;;;;;;;4994519;28;20712;-80
2023/01/24 14:39:20;;;;;;;11.27;10.10;;;;;;;;;;4980368;28;20288;-80
2023/01/24 14:42:03;;;;;;;11.10;10.00;;;;;;;;;;4996324;28;20296;-80
2023/01/24 14:44:30;;;;;;;10.53;9.63;;;;;;;;;;4960414;28;20233;-78
2023/01/24 14:47:02;;;;;;;9.27;8.30;;;;;;;;;;4995032;28;20237;-80
2023/01/24 14:49:44;;;;;;;9.77;8.77;;;;;;;;;;5010713;28;20256;-79
2023/01/24 14:52:37;;;;;;;10.27;9.40;;;;;;;;;;4978236;28;20229;-80
2023/01/24 14:55:38;;;;;;;10.27;9.13;;;;;;;;;;4989862;28;20240;-80
2023/01/24 14:58:19;;;;;;;9.90;9.00;;;;;;;;;;4917515;29;20219;-81
2023/01/24 15:00:45;;;;;;;9.90;9.10;;;;;;;;;;5001630;28;20247;-79
2023/01/24 15:03:21;;;;;;;10.90;9.90;;;;;;;;;;4995824;28;20217;-79
2023/01/24 15:05:56;;;;;;;10.97;9.67;;;;;;;;;;4982375;28;20264;-78
2023/01/24 15:08:28;;;;;;;10.20;9.33;;;;;;;;;;4975368;28;20281;-78
2023/01/24 15:11:16;;;;;;;11.03;8.67;;;;;;;;;;4974246;28;20221;-80
2023/01/24 15:13:45;;;;;;;8.27;7.57;;;;;;;;;;4993995;28;20241;-78
2023/01/24 15:16:23;;;;;;;9.50;8.60;;;;;;;;;;4997269;28;20216;-81
2023/01/24 15:19:14;;;;;;;9.03;8.13;;;;;;;;;;4980097;28;20592;-81
2023/01/24 15:21:46;;;;;;;8.50;7.77;;;;;;;;;;4992605;28;20229;-78
2023/01/24 15:24:28;;;;;;;9.63;8.73;;;;;;;;;;4986710;28;20240;-77
2023/01/24 15:26:57;;;;;;;10.83;9.10;;;;;;;;;;4987723;28;20233;-80
2023/01/24 15:29:41;;;;;;;10.53;9.43;;;;;;;;;;4953194;28;20256;-79
2023/01/24 15:32:28;;;;;;;10.10;9.17;;;;;;;;;;4989858;28;20304;-80
2023/01/24 15:35:13;;;;;;;10.03;9.10;;;;;;;;;;4962665;28;20234;-81
2023/01/24 15:37:43;;;;;;;8.63;7.93;;;;;;;;;;4995704;28;20229;-78
2023/01/24 15:40:20;;;;;;;8.93;8.03;;;;;;;;;;4977796;28;20224;-81
2023/01/24 15:45:35;;;;;;;8.43;7.63;;;;;;;;;;4964488;28;20571;-79
2023/01/24 15:48:24;;;;;;;7.63;6.97;;;;;;;;;;4965798;28;20285;-80
2023/01/24 15:51:14;;;;;;;7.03;6.43;;;;;;;;;;5001796;28;20288;-80
2023/01/24 15:53:42;;;;;;;8.47;7.67;;;;;;;;;;4988561;28;20233;-79
2023/01/24 15:56:15;;;;;;;9.90;9.00;;;;;;;;;;4978059;28;20252;-80
2023/01/24 15:58:43;;;;;;;8.73;7.87;;;;;;;;;;4990385;28;20237;-80
2023/01/24 16:01:08;;;;;;;9.43;8.53;;;;;;;;;;4974252;28;20272;-81
2023/01/24 16:03:34;;;;;;;8.77;7.97;;;;;;;;;;4978304;28;20229;-80
2023/01/24 16:05:59;;;;;;;8.00;7.30;;;;;;;;;;4983791;28;20259;-81
2023/01/24 16:08:27;;;;;;;9.13;8.23;;;;;;;;;;4985861;28;20265;-80